Main page
METAR-TAF:

METAR-TAF

Airports :

U-Tapao International Airport

Pattaya-Rayong, Thailand

latitude: 12-38N, longitude: 101-21E, elevation: 3 m

Current weather observation

The report was made 45 minutes ago, at 12:00 UTC
Wind 4 kt from the North/Northwest
Temperature 27°C
Humidity 79%
Pressure 1009 hPa
Visibility 10 km or more
Few clouds at a height of 2000 ft

METAR: VTBU 031200Z 33004KT 9999 FEW020 27/23 Q1009 NOSIG

Time: 19:45 (12:45 UTC)

Forecast

The report was made 1 hour and 45 minutes ago, at 11:00 UTC
Forecast valid from 03 at 12 UTC to 04 at 12 UTC
Wind 6 kt from the North
Visibility 10 km or more
Few clouds at a height of 2000 ft
Becoming
from 04 at 06 UTC to 04 at 07 UTC
Wind 6 kt from the South/Southeast
Becoming
from 04 at 10 UTC to 04 at 12 UTC
Wind 6 kt from the North

TAF: VTBU 031100Z 0312/0412 01006KT 9999 FEW020 BECMG 0406/0407 15006KT BECMG 0410/0412 01006KT

Weather observations and forecasts of more than 4000 airports (METAR and TAF reports).

The available stations are represented by yellow and red dots on the map.

Hover mouse over dot to see the name of the station.

Then click to see weather observations and forecasts.

To change the map : click on the green buttons with a black cross to zoom in, on the green button with a dash to zoom out, or on the green arrows for adjacent maps.


METAR-TAF: